Time;durP1;ratioP1;P1;durP2;ratioP2;P2;SDS_P1;SDS_P2;PMS_P1;PMS_P2;Temp;Humidity;BMP_temperature;BMP_pressure;BME280_temperature;BME280_humidity;BME280_pressure;Samples;Min_cycle;Max_cycle;Signal;HPM_P1;HPM_P2
2021/04/17 00:00:58;;;;;;;14.63;13.02;;;;;;;2.22;65.91;95781.69;5007424;28;20045;-74
2021/04/17 00:03:23;;;;;;;14.20;12.70;;;;;;;2.22;66.45;95758.06;4992790;28;20057;-80
2021/04/17 00:05:49;;;;;;;15.98;14.15;;;;;;;2.45;65.71;95755.28;4992960;28;20038;-79
2021/04/17 00:08:14;;;;;;;14.10;12.65;;;;;;;2.43;65.89;95767.09;4992603;28;20036;-79
2021/04/17 00:10:40;;;;;;;13.93;12.63;;;;;;;2.59;65.65;95771.56;4994668;28;20088;-79
2021/04/17 00:13:05;;;;;;;18.80;14.05;;;;;;;2.36;65.48;95722.59;4992385;28;20042;-79
2021/04/17 00:15:30;;;;;;;16.92;13.68;;;;;;;2.91;64.38;95774.41;4992668;28;20034;-79
2021/04/17 00:17:56;;;;;;;17.00;14.02;;;;;;;2.94;64.00;95766.06;4992510;28;20137;-79
2021/04/17 00:20:21;;;;;;;15.02;13.15;;;;;;;2.99;64.04;95767.97;4992587;28;20030;-79
2021/04/17 00:22:46;;;;;;;19.10;14.27;;;;;;;2.88;63.94;95755.72;4994221;28;20026;-80
2021/04/17 00:25:13;;;;;;;15.23;13.63;;;;;;;2.77;64.88;95742.44;4992400;28;20477;-80
2021/04/17 00:27:38;;;;;;;14.63;13.13;;;;;;;3.00;64.29;95749.34;4992241;28;20041;-79
2021/04/17 00:30:04;;;;;;;17.25;13.77;;;;;;;3.07;64.36;95768.38;4992514;28;20038;-79
2021/04/17 00:32:29;;;;;;;17.08;14.05;;;;;;;2.87;64.50;95768.06;4992060;28;20129;-79
2021/04/17 00:34:55;;;;;;;16.42;13.75;;;;;;;2.89;65.02;95768.63;4994508;28;20026;-80
2021/04/17 00:37:20;;;;;;;18.13;13.85;;;;;;;2.74;64.62;95736.84;4992053;28;20050;-79
2021/04/17 00:39:45;;;;;;;17.23;13.98;;;;;;;2.84;65.05;95747.53;4991524;28;20127;-79
2021/04/17 00:42:11;;;;;;;16.65;14.30;;;;;;;2.87;64.67;95741.78;4991926;28;20600;-78
2021/04/17 00:44:36;;;;;;;14.80;13.20;;;;;;;2.78;65.13;95730.88;4992298;28;20492;-79
2021/04/17 00:47:04;;;;;;;16.13;13.07;;;;;;;2.83;64.28;95727.53;4994060;28;20518;-80
2021/04/17 00:49:31;;;;;;;16.52;13.18;;;;;;;3.18;64.21;95734.34;4992537;28;20053;-80
2021/04/17 00:51:56;;;;;;;16.20;13.10;;;;;;;3.46;63.66;95746.53;4991915;28;20382;-80
2021/04/17 00:54:21;;;;;;;15.93;13.35;;;;;;;3.50;63.30;95727.41;4992149;28;20044;-80
2021/04/17 00:56:47;;;;;;;14.50;13.00;;;;;;;3.62;62.59;95714.13;4991890;28;20046;-79
2021/04/17 00:59:12;;;;;;;13.95;12.45;;;;;;;3.34;62.18;95684.34;4992172;28;20105;-78
2021/04/17 01:01:38;;;;;;;15.15;13.27;;;;;;;3.74;62.46;95720.06;4993817;28;20046;-78
2021/04/17 01:04:29;;;;;;;16.17;12.18;;;;;;;3.73;61.71;95710.56;4991952;28;20562;-76
2021/04/17 01:07:16;;;;;;;19.73;13.55;;;;;;;3.87;61.62;95729.38;4991416;28;20034;-80
2021/04/17 01:09:58;;;;;;;15.63;12.77;;;;;;;3.83;61.99;95713.28;4991900;28;20440;-79
2021/04/17 01:12:29;;;;;;;14.63;13.13;;;;;;;3.71;61.19;95733.69;4991707;28;20561;-77
2021/04/17 01:14:55;;;;;;;15.25;13.73;;;;;;;2.75;64.62;95714.78;4992254;28;20066;-79
2021/04/17 01:17:21;;;;;;;14.25;12.80;;;;;;;2.94;64.41;95737.16;4991923;28;20037;-78
2021/04/17 01:20:00;;;;;;;18.50;13.35;;;;;;;3.23;63.84;95731.78;4993755;28;20040;-78
2021/04/17 01:22:26;;;;;;;16.02;13.27;;;;;;;3.22;63.85;95715.19;4991643;28;20046;-78
2021/04/17 01:25:09;;;;;;;14.82;13.30;;;;;;;3.30;63.53;95706.91;4991806;28;20397;-78
2021/04/17 01:27:36;;;;;;;14.93;13.52;;;;;;;3.32;63.35;95715.31;5006836;28;20397;-78
2021/04/17 01:30:10;;;;;;;14.82;13.43;;;;;;;3.15;63.39;95719.03;4992161;28;20034;-79
2021/04/17 01:32:36;;;;;;;15.23;13.63;;;;;;;2.85;65.03;95712.31;4992932;28;20081;-78
2021/04/17 01:35:02;;;;;;;13.82;12.55;;;;;;;3.10;64.30;95717.94;4996544;28;20485;-78
2021/04/17 01:37:47;;;;;;;14.20;12.80;;;;;;;3.27;64.17;95714.47;4994579;28;20070;-78
2021/04/17 01:40:13;;;;;;;14.38;12.88;;;;;;;3.08;64.10;95720.03;4994998;28;20145;-79
2021/04/17 01:42:39;;;;;;;16.73;13.55;;;;;;;2.80;64.61;95714.88;4991537;28;20045;-78
2021/04/17 01:45:06;;;;;;;13.45;12.05;;;;;;;2.98;64.32;95704.13;4991434;28;20118;-78
2021/04/17 01:47:32;;;;;;;14.73;13.25;;;;;;;2.88;64.15;95700.56;4991464;28;20038;-78
2021/04/17 01:49:57;;;;;;;14.85;13.38;;;;;;;3.16;64.05;95718.00;4993484;28;20166;-81
2021/04/17 01:52:24;;;;;;;15.15;13.65;;;;;;;3.32;64.21;95719.78;4991298;28;20070;-77
2021/04/17 01:54:54;;;;;;;14.73;13.32;;;;;;;3.21;63.59;95705.72;4991285;28;20034;-77
2021/04/17 01:57:23;;;;;;;14.60;13.15;;;;;;;2.73;64.03;95664.34;4991168;28;20030;-79
2021/04/17 01:59:49;;;;;;;17.38;14.18;;;;;;;3.10;63.87;95701.38;4991441;28;20029;-78
2021/04/17 02:02:15;;;;;;;14.77;13.27;;;;;;;3.15;63.93;95703.28;4991111;28;20105;-79
2021/04/17 02:04:40;;;;;;;15.82;14.13;;;;;;;2.98;64.56;95704.13;4993166;28;20372;-79
2021/04/17 02:07:05;;;;;;;19.40;15.02;;;;;;;3.00;64.61;95707.28;4991241;28;20027;-78
2021/04/17 02:09:31;;;;;;;21.33;15.38;;;;;;;2.64;64.54;95663.94;4991304;28;20046;-79
2021/04/17 02:11:56;;;;;;;19.35;15.07;;;;;;;2.66;64.71;95685.50;4990988;28;20480;-79
2021/04/17 02:14:22;;;;;;;22.75;15.80;;;;;;;2.88;64.45;95692.66;4991128;28;20081;-79
2021/04/17 02:16:52;;;;;;;19.08;14.15;;;;;;;2.97;63.95;95704.34;4992874;28;20098;-79
2021/04/17 02:19:35;;;;;;;16.77;14.60;;;;;;;2.43;65.86;95696.19;4994953;28;20160;-78
2021/04/17 02:22:01;;;;;;;15.82;14.23;;;;;;;2.71;65.16;95709.22;4994585;28;20030;-77
2021/04/17 02:24:28;;;;;;;16.75;14.95;;;;;;;2.80;65.00;95712.25;4994678;28;20085;-78
2021/04/17 02:26:54;;;;;;;21.40;15.25;;;;;;;2.79;64.95;95695.69;4994287;28;20036;-79
2021/04/17 02:29:20;;;;;;;18.92;14.43;;;;;;;2.83;64.92;95703.91;4994854;28;20058;-80
2021/04/17 02:31:46;;;;;;;18.27;14.77;;;;;;;2.63;64.65;95704.38;5011198;23;20069;-74
2021/04/17 02:34:12;;;;;;;18.45;14.00;;;;;;;2.32;65.77;95695.22;4992747;28;20480;-73
2021/04/17 02:36:37;;;;;;;20.02;15.65;;;;;;;2.22;66.44;95702.94;4992636;28;20035;-73
2021/04/17 02:39:04;;;;;;;19.27;15.43;;;;;;;2.20;66.65;95697.94;4992371;28;20447;-73
2021/04/17 02:41:29;;;;;;;22.98;15.43;;;;;;;2.18;66.61;95705.25;4992321;28;20048;-74
2021/04/17 02:43:55;;;;;;;22.85;15.68;;;;;;;1.81;68.34;95705.66;4994311;28;20042;-74
2021/04/17 02:46:20;;;;;;;20.20;16.27;;;;;;;1.34;70.38;95693.72;4992611;28;20082;-74
2021/04/17 02:48:45;;;;;;;19.38;15.18;;;;;;;1.54;69.87;95700.16;4990926;28;20408;-73
2021/04/17 02:51:11;;;;;;;20.13;15.00;;;;;;;1.63;70.30;95700.56;4991417;28;20035;-73
2021/04/17 02:53:36;;;;;;;20.75;16.17;;;;;;;1.85;68.80;95677.13;4992139;28;20034;-76
2021/04/17 02:56:02;;;;;;;25.52;15.30;;;;;;;2.20;67.96;95687.44;4994218;28;20022;-73
2021/04/17 02:58:28;;;;;;;21.80;15.18;;;;;;;2.46;67.66;95688.66;4992015;28;20093;-73
2021/04/17 03:00:53;;;;;;;19.00;15.13;;;;;;;2.64;66.70;95681.53;4992162;28;20711;-73
2021/04/17 03:03:18;;;;;;;23.67;14.98;;;;;;;2.68;65.87;95682.66;4991828;28;20034;-73
2021/04/17 03:05:45;;;;;;;24.48;15.60;;;;;;;2.42;66.47;95687.53;4991956;28;20073;-74
2021/04/17 03:08:11;;;;;;;20.85;16.55;;;;;;;2.60;66.10;95661.00;4991664;28;20057;-73
2021/04/17 03:10:37;;;;;;;24.45;16.83;;;;;;;3.03;65.83;95682.38;5008835;28;20065;-73
2021/04/17 03:13:04;;;;;;;25.08;16.33;;;;;;;3.20;65.25;95677.84;4991460;28;20125;-74
2021/04/17 03:15:30;;;;;;;24.48;16.65;;;;;;;3.35;65.25;95679.88;4991654;28;20045;-74
2021/04/17 03:17:55;;;;;;;19.50;14.82;;;;;;;3.08;63.94;95674.53;4991591;28;20038;-73
2021/04/17 03:20:21;;;;;;;17.92;14.00;;;;;;;3.03;64.29;95685.78;4991712;28;20105;-74
2021/04/17 03:22:46;;;;;;;17.88;14.30;;;;;;;3.24;64.26;95665.81;5008227;28;20031;-74
2021/04/17 03:25:12;;;;;;;17.55;14.10;;;;;;;3.32;64.12;95652.22;4991590;28;20027;-74
2021/04/17 03:27:39;;;;;;;15.52;13.43;;;;;;;3.55;64.03;95676.69;4991520;28;20041;-74
2021/04/17 03:30:07;;;;;;;15.60;13.70;;;;;;;3.49;63.67;95662.69;4991009;28;20126;-73
2021/04/17 03:32:34;;;;;;;15.40;13.80;;;;;;;3.61;63.41;95665.97;4989848;28;20041;-75
2021/04/17 03:34:59;;;;;;;16.02;13.60;;;;;;;3.34;62.99;95657.25;4993358;28;20026;-73
2021/04/17 03:37:25;;;;;;;16.77;15.05;;;;;;;3.29;63.24;95667.72;4990959;28;20038;-73
2021/04/17 03:39:51;;;;;;;17.55;14.80;;;;;;;2.88;64.62;95666.41;4991303;28;20042;-75
2021/04/17 03:42:16;;;;;;;15.18;13.60;;;;;;;1.99;68.54;95660.03;4990985;28;20045;-74
2021/04/17 03:44:42;;;;;;;17.25;14.63;;;;;;;2.08;68.56;95669.13;4991271;28;20100;-75
2021/04/17 03:47:07;;;;;;;16.05;14.40;;;;;;;2.18;68.73;95671.13;5006046;28;20085;-75
2021/04/17 03:49:32;;;;;;;16.52;13.85;;;;;;;2.50;67.41;95650.34;5008043;28;20058;-74
2021/04/17 03:51:58;;;;;;;18.42;14.48;;;;;;;2.82;66.77;95668.16;4989333;28;20038;-75
2021/04/17 03:54:23;;;;;;;17.08;15.35;;;;;;;2.41;67.41;95670.19;4991136;28;20117;-75
2021/04/17 03:56:48;;;;;;;18.48;15.43;;;;;;;2.41;67.91;95672.81;4990865;28;20035;-74
2021/04/17 03:59:14;;;;;;;17.10;14.57;;;;;;;1.71;70.51;95671.38;4991162;28;20153;-75
2021/04/17 04:01:39;;;;;;;16.17;14.43;;;;;;;2.08;69.79;95676.19;4992561;28;20038;-74
2021/04/17 04:04:05;;;;;;;18.73;15.20;;;;;;;1.96;69.48;95668.41;4990909;28;20515;-73
2021/04/17 04:06:30;;;;;;;16.77;15.00;;;;;;;1.56;70.77;95671.09;4990914;28;20456;-74
2021/04/17 04:08:55;;;;;;;16.55;14.50;;;;;;;1.67;71.47;95677.31;4990635;28;20042;-73
2021/04/17 04:11:21;;;;;;;15.73;14.13;;;;;;;1.36;72.51;95681.97;4990554;28;20031;-74
2021/04/17 04:13:46;;;;;;;17.58;15.48;;;;;;;1.48;71.69;95677.47;4992434;28;20122;-74
2021/04/17 04:16:12;;;;;;;17.60;14.48;;;;;;;2.00;70.39;95690.50;5005782;28;20035;-73
2021/04/17 04:18:37;;;;;;;17.73;14.88;;;;;;;1.87;70.75;95700.50;4990413;28;20401;-73
2021/04/17 04:21:03;;;;;;;18.13;14.88;;;;;;;1.79;71.21;95691.97;4990522;28;20030;-74
2021/04/17 04:23:28;;;;;;;17.77;14.63;;;;;;;2.27;70.23;95697.78;4990493;28;20035;-73
2021/04/17 04:25:54;;;;;;;17.30;15.40;;;;;;;1.74;69.89;95628.94;4992349;28;20022;-73
2021/04/17 04:28:19;;;;;;;18.35;15.20;;;;;;;1.97;70.71;95698.84;4990311;28;20046;-74
2021/04/17 04:30:45;;;;;;;17.65;15.20;;;;;;;2.22;69.58;95687.19;4989032;28;20112;-74
2021/04/17 04:33:11;;;;;;;18.15;14.80;;;;;;;2.24;69.75;95696.41;4990099;28;20030;-73
2021/04/17 04:35:36;;;;;;;16.63;14.93;;;;;;;2.48;69.27;95677.88;5005459;28;20035;-72
2021/04/17 04:38:02;;;;;;;20.02;15.43;;;;;;;2.63;68.77;95695.72;4990763;28;20084;-73
2021/04/17 04:40:27;;;;;;;16.30;14.63;;;;;;;2.84;68.34;95694.97;4989638;28;20711;-74
2021/04/17 04:42:53;;;;;;;16.35;13.80;;;;;;;3.22;67.90;95688.91;4989670;28;20068;-75
2021/04/17 04:45:18;;;;;;;20.08;14.45;;;;;;;3.57;66.74;95690.38;4990401;28;20034;-74
2021/04/17 04:47:44;;;;;;;16.23;14.52;;;;;;;3.76;66.15;95688.22;4990103;28;20026;-75
2021/04/17 04:50:10;;;;;;;15.88;14.25;;;;;;;3.94;65.73;95694.97;4988658;28;20026;-73
2021/04/17 04:52:36;;;;;;;16.55;14.60;;;;;;;3.98;64.70;95678.44;5006743;28;20038;-74
2021/04/17 04:55:03;;;;;;;16.35;14.05;;;;;;;4.21;64.22;95697.63;4990121;28;20046;-73
2021/04/17 04:57:28;;;;;;;20.27;14.25;;;;;;;3.23;65.73;95705.50;4989685;28;20030;-74
2021/04/17 04:59:53;;;;;;;18.63;15.05;;;;;;;2.23;69.41;95701.91;4989825;28;20043;-75
2021/04/17 05:02:19;;;;;;;18.90;15.45;;;;;;;2.17;70.63;95716.78;4988212;28;20037;-75
2021/04/17 05:04:45;;;;;;;17.98;14.90;;;;;;;1.97;71.56;95696.22;4991776;28;20030;-74
2021/04/17 05:07:10;;;;;;;24.80;17.23;;;;;;;1.92;72.34;95698.75;5004445;28;20049;-73
2021/04/17 05:09:36;;;;;;;17.55;15.23;;;;;;;1.88;72.04;95692.38;5004797;28;20042;-73
2021/04/17 05:12:01;;;;;;;22.05;16.63;;;;;;;2.07;71.40;95699.03;4989359;28;20046;-74
2021/04/17 05:14:27;;;;;;;17.55;15.75;;;;;;;2.58;70.22;95693.81;4989641;28;20108;-74
2021/04/17 05:16:52;;;;;;;18.60;14.13;;;;;;;2.67;70.30;95709.97;4991326;28;20030;-75
2021/04/17 05:19:17;;;;;;;22.05;16.25;;;;;;;2.52;70.42;95697.38;4989404;28;20046;-74
2021/04/17 05:21:43;;;;;;;17.20;14.18;;;;;;;2.40;70.11;95699.28;4989275;28;20092;-74
2021/04/17 05:24:08;;;;;;;18.17;15.60;;;;;;;2.60;70.45;95710.91;4988161;28;20114;-73
2021/04/17 05:26:34;;;;;;;18.23;14.45;;;;;;;2.65;70.10;95710.19;4989477;28;20097;-73
2021/04/17 05:29:00;;;;;;;16.95;15.15;;;;;;;2.79;68.32;95647.63;4989924;28;20130;-71
2021/04/17 05:31:25;;;;;;;16.63;14.80;;;;;;;2.83;69.78;95709.94;4989456;28;20599;-75
2021/04/17 05:33:52;;;;;;;16.13;14.63;;;;;;;2.89;69.12;95699.50;4989067;28;20045;-75
2021/04/17 05:36:17;;;;;;;20.77;15.35;;;;;;;3.52;67.47;95706.09;4989543;28;20065;-77
2021/04/17 05:38:42;;;;;;;21.45;15.82;;;;;;;4.12;66.70;95702.53;4989148;28;20480;-76
2021/04/17 05:41:07;;;;;;;18.83;16.83;;;;;;;4.55;65.35;95701.59;4989298;28;20081;-76
2021/04/17 05:43:33;;;;;;;17.02;15.38;;;;;;;4.62;63.85;95686.38;4991251;28;20038;-77
2021/04/17 05:45:58;;;;;;;19.70;15.90;;;;;;;5.25;63.62;95698.88;4989521;28;20038;-76
2021/04/17 05:48:24;;;;;;;16.02;14.43;;;;;;;4.97;61.66;95697.41;4989440;28;20051;-77
2021/04/17 05:50:49;;;;;;;17.80;15.90;;;;;;;4.84;62.37;95701.28;4989386;28;20046;-77
2021/04/17 05:53:14;;;;;;;20.83;15.60;;;;;;;5.12;61.97;95708.06;4991482;28;20041;-76
2021/04/17 05:55:40;;;;;;;19.98;17.15;;;;;;;5.24;61.45;95689.38;4995359;28;20042;-77
2021/04/17 05:58:06;;;;;;;18.23;16.25;;;;;;;4.88;62.52;95699.72;4993238;28;20133;-77
2021/04/17 06:00:31;;;;;;;18.13;15.93;;;;;;;4.85;63.16;95697.59;4993274;28;20112;-76
2021/04/17 06:02:57;;;;;;;22.88;17.83;;;;;;;4.66;64.36;95707.75;4992990;28;20137;-76
2021/04/17 06:05:22;;;;;;;20.65;16.38;;;;;;;5.28;63.55;95708.94;4993279;28;20027;-76
2021/04/17 06:07:48;;;;;;;23.77;17.70;;;;;;;5.65;62.17;95701.69;4994998;28;20018;-78
2021/04/17 06:10:13;;;;;;;22.80;18.33;;;;;;;5.67;60.88;95714.63;4993158;28;20035;-76
2021/04/17 06:12:39;;;;;;;26.05;18.48;;;;;;;4.60;64.11;95722.69;4992726;28;20038;-75
2021/04/17 06:15:06;;;;;;;22.77;18.48;;;;;;;4.48;65.76;95730.00;4993123;28;20046;-76
2021/04/17 06:17:31;;;;;;;23.15;17.05;;;;;;;5.13;64.00;95702.53;5008062;28;20060;-76
2021/04/17 06:19:57;;;;;;;22.58;18.02;;;;;;;5.71;62.72;95715.72;4994652;28;20019;-75
2021/04/17 06:22:22;;;;;;;25.40;19.67;;;;;;;4.84;64.57;95709.19;4992673;28;20030;-76
2021/04/17 06:24:47;;;;;;;26.58;20.23;;;;;;;5.30;64.19;95707.63;5008026;28;20026;-76
2021/04/17 06:27:13;;;;;;;26.70;19.70;;;;;;;5.58;64.32;95709.06;4992482;28;20420;-77
2021/04/17 06:29:38;;;;;;;26.00;20.23;;;;;;;5.05;64.71;95710.09;4991582;28;20051;-77
2021/04/17 06:32:04;;;;;;;25.02;19.42;;;;;;;4.44;66.95;95726.25;4994181;28;20030;-75
2021/04/17 06:34:29;;;;;;;25.20;19.35;;;;;;;4.48;65.87;95679.16;4992918;28;20034;-76
2021/04/17 06:36:55;;;;;;;28.25;19.65;;;;;;;5.43;64.46;95717.72;4991259;28;20042;-77
2021/04/17 06:39:20;;;;;;;24.63;19.80;;;;;;;5.38;63.86;95714.25;4992596;28;20035;-76
2021/04/17 06:41:48;;;;;;;26.40;21.10;;;;;;;4.99;65.09;95719.84;5007651;28;20031;-75
2021/04/17 06:44:15;;;;;;;24.95;20.15;;;;;;;5.54;64.75;95721.19;4992706;28;20035;-75
2021/04/17 06:46:41;;;;;;;25.77;20.02;;;;;;;5.19;65.60;95712.03;4994460;28;20073;-76
2021/04/17 06:49:07;;;;;;;22.88;18.92;;;;;;;4.43;67.74;95714.13;4992715;28;20034;-80
2021/04/17 06:51:37;;;;;;;29.20;21.23;;;;;;;4.72;67.33;95719.13;4991686;28;20113;-70
2021/04/17 06:54:05;;;;;;;27.38;20.40;;;;;;;4.73;68.07;95697.78;4990882;28;20385;-74
2021/04/17 06:56:31;;;;;;;25.50;21.52;;;;;;;4.94;68.15;95712.69;4992080;28;20030;-69
2021/04/17 06:58:56;;;;;;;27.02;21.70;;;;;;;5.21;67.44;95703.88;4993984;28;20026;-68
2021/04/17 07:01:22;;;;;;;26.15;21.02;;;;;;;4.88;68.19;95712.91;4993759;28;20038;-73
2021/04/17 07:03:47;;;;;;;26.77;20.83;;;;;;;5.35;66.81;95704.22;5008301;28;20050;-69
2021/04/17 07:06:14;;;;;;;27.67;21.15;;;;;;;5.55;65.14;95701.66;4994893;28;20136;-73
2021/04/17 07:08:40;;;;;;;27.88;21.55;;;;;;;5.60;65.99;95706.97;5008142;28;20298;-71
2021/04/17 07:11:06;;;;;;;27.50;20.70;;;;;;;5.58;66.20;95709.06;4992185;28;20152;-73
2021/04/17 07:13:34;;;;;;;28.40;22.58;;;;;;;6.11;65.04;95709.78;4993880;28;20098;-73
2021/04/17 07:16:08;;;;;;;30.00;21.10;;;;;;;6.51;63.15;95708.25;4992496;28;20043;-70
2021/04/17 07:18:36;;;;;;;27.95;22.70;;;;;;;6.46;62.68;95702.97;4991646;28;20038;-70
2021/04/17 07:21:13;;;;;;;27.15;21.10;;;;;;;5.75;65.45;95706.22;4991668;28;20380;-72
2021/04/17 07:23:41;;;;;;;30.25;21.58;;;;;;;4.88;67.68;95715.53;4991737;28;20046;-71
2021/04/17 07:26:08;;;;;;;28.20;21.67;;;;;;;4.95;69.02;95711.63;4991659;28;20054;-71
2021/04/17 07:28:38;;;;;;;30.27;24.33;;;;;;;5.96;66.71;95707.09;4993211;28;20029;-71
2021/04/17 07:31:04;;;;;;;29.65;22.48;;;;;;;5.39;67.00;95705.28;4992264;28;20038;-72
2021/04/17 07:33:31;;;;;;;29.73;22.38;;;;;;;4.75;69.94;95719.41;4990639;28;20057;-70
2021/04/17 07:35:57;;;;;;;29.45;21.92;;;;;;;4.92;69.15;95708.72;4991383;28;20042;-68
2021/04/17 07:38:34;;;;;;;30.85;23.77;;;;;;;5.06;69.41;95706.41;4991501;28;20026;-79
2021/04/17 07:41:05;;;;;;;31.52;23.40;;;;;;;5.91;67.47;95720.28;4993285;28;20026;-71
2021/04/17 07:43:52;;;;;;;28.92;22.73;;;;;;;5.82;67.78;95712.03;5006727;28;20096;-70
2021/04/17 07:46:39;;;;;;;26.55;22.23;;;;;;;5.95;67.77;95719.53;4991570;28;20093;-73
2021/04/17 07:49:18;;;;;;;29.38;23.00;;;;;;;5.41;69.09;95724.28;4991323;28;20535;-70
2021/04/17 07:52:08;;;;;;;36.80;25.85;;;;;;;5.81;67.73;95717.59;4989774;28;20045;-69
2021/04/17 07:54:33;;;;;;;32.47;24.17;;;;;;;5.90;68.69;95716.03;4991926;28;20042;-76
2021/04/17 07:57:10;;;;;;;33.13;23.70;;;;;;;5.38;68.81;95719.53;4992269;28;20038;-68
2021/04/17 07:59:37;;;;;;;33.00;23.88;;;;;;;5.70;68.66;95722.84;4989822;28;20161;-80
2021/04/17 08:02:02;;;;;;;27.23;21.95;;;;;;;5.15;69.61;95692.50;4994507;28;20053;-72
2021/04/17 08:04:29;;;;;;;30.17;21.92;;;;;;;5.40;69.17;95722.69;4992359;28;20101;-73
2021/04/17 08:06:56;;;;;;;27.02;22.65;;;;;;;5.65;69.54;95708.84;4991798;28;20176;-73
2021/04/17 08:09:23;;;;;;;28.80;24.25;;;;;;;6.42;67.99;95712.47;4990034;28;20030;-70
2021/04/17 08:11:53;;;;;;;26.58;21.13;;;;;;;7.43;65.90;95705.50;4990329;28;20100;-69
2021/04/17 08:14:21;;;;;;;28.10;22.00;;;;;;;7.34;63.36;95712.41;4990772;28;20026;-70
2021/04/17 08:16:49;;;;;;;29.52;22.85;;;;;;;6.73;65.21;95708.78;4993192;28;20105;-70
2021/04/17 08:19:16;;;;;;;28.27;21.60;;;;;;;7.30;63.40;95698.91;4991427;28;20042;-70
2021/04/17 08:21:42;;;;;;;25.55;21.90;;;;;;;6.44;65.19;95697.13;4990720;28;20496;-70
2021/04/17 08:24:09;;;;;;;24.42;21.73;;;;;;;7.21;64.29;95697.84;4991579;28;20050;-70
2021/04/17 08:26:35;;;;;;;27.35;22.55;;;;;;;7.63;63.92;95708.06;4991572;28;20044;-69
2021/04/17 08:29:02;;;;;;;24.27;21.10;;;;;;;7.74;61.76;95701.66;4992923;28;20022;-70
2021/04/17 08:31:32;;;;;;;23.60;20.75;;;;;;;7.50;61.64;95704.13;4990893;28;20113;-70
2021/04/17 08:34:05;;;;;;;25.92;21.13;;;;;;;7.73;60.99;95704.59;4990657;28;20094;-70
2021/04/17 08:36:36;;;;;;;24.05;19.92;;;;;;;7.27;61.61;95708.19;5012934;23;20045;-76
2021/04/17 08:39:04;;;;;;;25.65;20.48;;;;;;;7.34;61.93;95693.88;5006126;28;20034;-77
2021/04/17 08:41:40;;;;;;;22.58;19.63;;;;;;;6.71;64.23;95700.31;4989883;28;20050;-70
2021/04/17 08:44:32;;;;;;;19.88;17.77;;;;;;;7.95;62.06;95691.75;4971886;28;20027;-74
2021/04/17 08:46:59;;;;;;;20.58;18.40;;;;;;;7.73;61.88;95694.78;4974083;28;20154;-81
2021/04/17 08:49:29;;;;;;;18.42;16.52;;;;;;;8.09;58.51;95691.97;4972150;28;20038;-73
2021/04/17 08:52:19;;;;;;;18.00;16.35;;;;;;;8.58;57.66;95683.16;4970716;28;20417;-80
2021/04/17 08:54:47;;;;;;;18.35;16.48;;;;;;;7.79;59.79;95693.69;4972976;28;20126;-79
2021/04/17 08:57:17;;;;;;;16.15;14.63;;;;;;;8.15;58.23;95679.47;4971511;28;20389;-79
2021/04/17 08:59:52;;;;;;;19.55;17.52;;;;;;;8.68;58.11;95677.75;4972776;28;20039;-79
2021/04/17 09:02:19;;;;;;;17.60;16.00;;;;;;;8.76;56.84;95690.44;4972135;28;20023;-79
2021/04/17 09:05:05;;;;;;;17.63;16.02;;;;;;;8.12;55.97;95688.75;4974363;28;20026;-77
2021/04/17 09:07:33;;;;;;;18.60;16.80;;;;;;;7.64;57.50;95701.72;4971470;28;20034;-77
2021/04/17 09:10:35;;;;;;;18.38;16.48;;;;;;;8.10;57.93;95682.94;4971199;28;20110;-78
2021/04/17 09:13:14;;;;;;;18.95;17.30;;;;;;;9.49;53.37;95678.03;4971056;28;20070;-80
2021/04/17 09:15:57;;;;;;;15.13;13.63;;;;;;;8.44;53.45;95676.91;4972549;28;20089;-79
2021/04/17 09:18:34;;;;;;;17.27;15.25;;;;;;;9.07;52.05;95690.94;4972309;28;20051;-80
2021/04/17 09:21:06;;;;;;;15.75;14.35;;;;;;;10.42;50.68;95681.88;4986580;28;20584;-79
2021/04/17 09:23:35;;;;;;;16.13;14.63;;;;;;;7.88;55.51;95672.72;4971585;28;20042;-78
2021/04/17 09:26:00;;;;;;;18.27;16.67;;;;;;;9.34;53.28;95674.47;4988803;28;20489;-79
2021/04/17 09:28:35;;;;;;;18.30;16.50;;;;;;;8.25;54.94;95672.25;4971142;28;20038;-79
2021/04/17 09:31:01;;;;;;;15.10;13.60;;;;;;;7.91;55.01;95674.81;4972043;28;20066;-79
2021/04/17 09:33:26;;;;;;;17.27;15.73;;;;;;;8.56;53.64;95648.97;4986451;28;20458;-78
2021/04/17 09:35:52;;;;;;;17.38;15.68;;;;;;;9.75;52.76;95658.06;4971838;28;20082;-78
2021/04/17 09:38:17;;;;;;;14.15;12.95;;;;;;;10.49;48.52;95650.38;4971789;28;20023;-80
2021/04/17 09:40:48;;;;;;;13.63;12.43;;;;;;;10.99;48.98;95668.44;4972212;28;20684;-80
2021/04/17 09:43:24;;;;;;;11.70;10.50;;;;;;;11.40;45.89;95665.84;4971495;28;20066;-80
2021/04/17 09:45:51;;;;;;;11.23;10.35;;;;;;;11.85;44.54;95660.72;4971892;28;20035;-80
2021/04/17 09:48:20;;;;;;;12.63;11.55;;;;;;;12.35;44.44;95656.13;4971474;28;20058;-79
2021/04/17 09:50:47;;;;;;;13.23;12.10;;;;;;;12.94;42.95;95650.72;4971484;28;20138;-86
2021/04/17 09:53:12;;;;;;;14.60;13.02;;;;;;;13.01;41.73;95651.09;4971848;28;20027;-80
2021/04/17 09:55:47;;;;;;;14.75;13.43;;;;;;;11.74;43.26;95654.78;4973723;28;20130;-83
2021/04/17 09:58:20;;;;;;;14.60;13.30;;;;;;;10.27;46.95;95653.63;4985822;28;20429;-75
2021/04/17 10:00:46;;;;;;;14.73;13.60;;;;;;;11.56;45.94;95637.81;4985755;28;20034;-74
2021/04/17 10:03:11;;;;;;;13.63;12.52;;;;;;;11.85;43.62;95628.72;4985734;28;20104;-79
2021/04/17 10:05:37;;;;;;;12.95;11.95;;;;;;;12.65;43.13;95651.19;4971423;28;20027;-74
2021/04/17 10:08:03;;;;;;;13.50;12.10;;;;;;;12.83;40.92;95636.84;4973320;28;20042;-83
2021/04/17 10:10:36;;;;;;;13.20;11.50;;;;;;;11.61;42.78;95639.56;4971278;28;20035;-75
2021/04/17 10:13:01;;;;;;;11.88;10.88;;;;;;;9.75;46.48;95617.41;4985704;28;20047;-80
2021/04/17 10:15:29;;;;;;;12.60;11.60;;;;;;;11.29;44.90;95635.94;4971724;28;20031;-80
2021/04/17 10:17:57;;;;;;;12.05;11.00;;;;;;;10.69;43.97;95630.63;4976427;28;20125;-77
2021/04/17 10:20:25;;;;;;;10.75;9.57;;;;;;;10.63;45.39;95619.28;5010899;28;20324;-76
2021/04/17 10:22:55;;;;;;;9.95;9.00;;;;;;;11.40;43.52;95624.00;5005158;28;20014;-77
2021/04/17 10:25:42;;;;;;;9.75;8.95;;;;;;;11.87;42.37;95610.53;5000698;28;20046;-81
2021/04/17 10:28:11;;;;;;;11.20;10.27;;;;;;;10.64;45.71;95630.72;4990468;28;20057;-83
2021/04/17 10:30:37;;;;;;;10.68;9.60;;;;;;;9.35;48.50;95616.84;4990103;28;20066;-83
2021/04/17 10:33:02;;;;;;;11.02;10.13;;;;;;;8.75;49.86;95625.22;4990573;28;20046;-80
2021/04/17 10:35:33;;;;;;;10.63;9.55;;;;;;;9.74;48.59;95621.16;4990159;28;20039;-73
2021/04/17 10:37:59;;;;;;;11.25;10.23;;;;;;;9.72;48.24;95625.94;4992104;28;20026;-76
2021/04/17 10:40:26;;;;;;;11.07;8.98;;;;;;;9.04;50.57;95613.75;4993809;28;20560;-71
2021/04/17 10:43:03;;;;;;;9.18;8.27;;;;;;;8.67;51.72;95622.38;4993078;28;20065;-70
2021/04/17 10:45:28;;;;;;;9.25;8.40;;;;;;;8.97;51.40;95613.31;4993443;28;20034;-70
2021/04/17 10:48:02;;;;;;;8.70;7.80;;;;;;;10.63;47.95;95613.19;4993071;28;20074;-70
2021/04/17 10:50:31;;;;;;;8.95;8.05;;;;;;;11.76;44.50;95593.97;4992828;28;20117;-73
2021/04/17 10:52:56;;;;;;;8.80;7.07;;;;;;;12.53;43.04;95608.22;4994865;28;20022;-78
2021/04/17 10:55:37;;;;;;;8.13;7.43;;;;;;;12.53;41.64;95593.00;4993656;28;20042;-76
2021/04/17 10:58:04;;;;;;;8.15;7.45;;;;;;;11.39;43.23;95609.09;4993538;28;20038;-76
2021/04/17 11:00:32;;;;;;;7.28;6.65;;;;;;;10.39;45.31;95600.03;4994162;28;20038;-84
2021/04/17 11:02:58;;;;;;;7.55;6.95;;;;;;;12.09;43.65;95591.16;5008534;28;20042;-76
2021/04/17 11:05:32;;;;;;;8.13;7.43;;;;;;;12.44;41.10;95576.97;4993596;28;20030;-73
2021/04/17 11:08:03;;;;;;;7.53;6.82;;;;;;;10.31;44.14;95585.50;4995242;28;20022;-72
2021/04/17 11:10:33;;;;;;;7.25;6.05;;;;;;;12.05;43.36;95574.94;4993349;28;20039;-75
2021/04/17 11:12:59;;;;;;;7.13;6.53;;;;;;;11.77;40.59;95576.09;4992637;28;20038;-71
2021/04/17 11:15:29;;;;;;;6.30;5.65;;;;;;;12.52;40.82;95574.63;4993092;28;20034;-76
2021/04/17 11:18:34;;;;;;;6.50;6.00;;;;;;;13.52;38.83;95575.72;4991289;28;20050;-72
2021/04/17 11:21:11;;;;;;;6.15;5.65;;;;;;;13.83;38.42;95569.47;4950757;28;20039;-71
2021/04/17 11:23:57;;;;;;;7.40;6.70;;;;;;;13.85;37.24;95561.91;4948785;29;20051;-71
2021/04/17 11:26:27;;;;;;;7.68;6.95;;;;;;;11.37;42.02;95579.34;4979517;28;20042;-67
2021/04/17 11:28:56;;;;;;;8.13;7.43;;;;;;;11.53;41.61;95560.38;4994295;28;20037;-71